Time;durP1;ratioP1;P1;durP2;ratioP2;P2;SDS_P1;SDS_P2;PMS_P1;PMS_P2;Temp;Humidity;BMP_temperature;BMP_pressure;BME280_temperature;BME280_humidity;BME280_pressure;Samples;Min_cycle;Max_cycle;Signal;HPM_P1;HPM_P2
2023/03/27 00:00:42;;;;;;;6.13;1.98;;;;;;;;;;5074785;28;20561;-84
2023/03/27 00:03:10;;;;;;;4.55;2.53;;;;;;;;;;5073798;28;20604;-83
2023/03/27 00:05:37;;;;;;;4.90;1.70;;;;;;;;;;5075136;28;20231;-83
2023/03/27 00:08:08;;;;;;;6.47;2.40;;;;;;;;;;5074932;28;20336;-83
2023/03/27 00:10:36;;;;;;;3.72;1.85;;;;;;;;;;5075282;28;20650;-84
2023/03/27 00:13:07;;;;;;;12.60;3.08;;;;;;;;;;5075192;28;20205;-84
2023/03/27 00:15:36;;;;;;;4.22;1.80;;;;;;;;;;5075565;28;20185;-84
2023/03/27 00:18:03;;;;;;;4.85;1.58;;;;;;;;;;5075316;28;20682;-84
2023/03/27 00:20:36;;;;;;;2.60;1.92;;;;;;;;;;5074722;28;20278;-83
2023/03/27 00:23:05;;;;;;;7.95;2.10;;;;;;;;;;5075095;28;20228;-82
2023/03/27 00:25:34;;;;;;;2.67;1.63;;;;;;;;;;5074941;28;20197;-84
2023/03/27 00:28:04;;;;;;;4.20;2.53;;;;;;;;;;5074998;28;20762;-83
2023/03/27 00:30:32;;;;;;;4.63;1.75;;;;;;;;;;5074613;28;20201;-83
2023/03/27 00:33:00;;;;;;;4.97;2.28;;;;;;;;;;5074552;28;20201;-83
2023/03/27 00:35:30;;;;;;;4.00;1.90;;;;;;;;;;5074216;28;20247;-83
2023/03/27 00:37:58;;;;;;;6.40;2.28;;;;;;;;;;5074044;28;20225;-83
2023/03/27 00:40:26;;;;;;;6.68;1.83;;;;;;;;;;5074264;28;20204;-83
2023/03/27 00:42:57;;;;;;;8.23;2.33;;;;;;;;;;5074091;28;20216;-84
2023/03/27 00:45:29;;;;;;;4.68;2.08;;;;;;;;;;5073140;28;20192;-84
2023/03/27 00:48:00;;;;;;;3.45;1.90;;;;;;;;;;5074238;28;20220;-83
2023/03/27 00:50:31;;;;;;;3.70;1.60;;;;;;;;;;5073539;28;20205;-82
2023/03/27 00:53:04;;;;;;;6.20;2.47;;;;;;;;;;5074401;28;20291;-85
2023/03/27 00:55:33;;;;;;;2.72;2.10;;;;;;;;;;5074098;28;20208;-84
2023/03/27 00:58:05;;;;;;;5.65;2.30;;;;;;;;;;5073165;28;20217;-84
2023/03/27 01:00:35;;;;;;;10.73;3.10;;;;;;;;;;5074023;28;20559;-84
2023/03/27 01:03:06;;;;;;;5.30;2.15;;;;;;;;;;5074169;28;20228;-83
2023/03/27 01:05:35;;;;;;;4.70;1.90;;;;;;;;;;5072441;28;20203;-81
2023/03/27 01:08:03;;;;;;;7.68;2.50;;;;;;;;;;5069837;28;20299;-85
2023/03/27 01:10:40;;;;;;;2.88;1.63;;;;;;;;;;5073925;28;20296;-84
2023/03/27 01:13:26;;;;;;;2.35;1.40;;;;;;;;;;5074128;28;20185;-84
2023/03/27 01:16:00;;;;;;;8.93;1.92;;;;;;;;;;5074313;28;20192;-84
2023/03/27 01:18:39;;;;;;;7.45;3.25;;;;;;;;;;5073937;28;20231;-83
2023/03/27 01:21:45;;;;;;;4.88;2.05;;;;;;;;;;5074355;28;20243;-83
2023/03/27 01:24:52;;;;;;;8.05;3.75;;;;;;;;;;5074352;28;20295;-83
2023/03/27 01:27:25;;;;;;;4.50;1.65;;;;;;;;;;5068479;28;20595;-84
2023/03/27 01:30:03;;;;;;;3.47;1.52;;;;;;;;;;5074205;28;20188;-84
2023/03/27 01:33:24;;;;;;;5.57;1.77;;;;;;;;;;5074019;28;20192;-84
2023/03/27 01:36:18;;;;;;;7.53;2.20;;;;;;;;;;5053398;28;20281;-83
2023/03/27 01:39:20;;;;;;;2.30;1.27;;;;;;;;;;5053003;28;20243;-84
2023/03/27 01:41:53;;;;;;;5.75;2.13;;;;;;;;;;5053761;28;20197;-84
2023/03/27 01:44:30;;;;;;;5.95;1.55;;;;;;;;;;5053610;28;20222;-84
2023/03/27 01:47:03;;;;;;;5.45;2.40;;;;;;;;;;5053601;28;20312;-82
2023/03/27 01:49:34;;;;;;;4.43;1.63;;;;;;;;;;5052970;28;20186;-85
2023/03/27 01:52:07;;;;;;;3.17;1.60;;;;;;;;;;5072341;28;20207;-83
2023/03/27 01:54:40;;;;;;;5.43;1.60;;;;;;;;;;5073604;28;20201;-83
2023/03/27 01:57:15;;;;;;;3.50;2.25;;;;;;;;;;5073300;28;20294;-82
2023/03/27 01:59:46;;;;;;;4.45;1.55;;;;;;;;;;5073470;28;20185;-84
2023/03/27 02:02:19;;;;;;;3.90;1.23;;;;;;;;;;5073489;28;20272;-83
2023/03/27 02:04:51;;;;;;;7.05;2.50;;;;;;;;;;5072364;28;20278;-83
2023/03/27 02:07:25;;;;;;;6.85;2.60;;;;;;;;;;5072508;28;20250;-83
2023/03/27 02:09:59;;;;;;;8.70;1.92;;;;;;;;;;5072704;28;20208;-84
2023/03/27 02:12:30;;;;;;;3.72;1.70;;;;;;;;;;5073492;28;20283;-83
2023/03/27 02:15:06;;;;;;;4.47;1.73;;;;;;;;;;5072823;28;20280;-83
2023/03/27 02:17:38;;;;;;;5.65;1.80;;;;;;;;;;5073061;28;20262;-82
2023/03/27 02:20:13;;;;;;;4.78;2.25;;;;;;;;;;5072894;28;20189;-85
2023/03/27 02:22:41;;;;;;;5.63;2.38;;;;;;;;;;5072852;28;20195;-84
2023/03/27 02:25:31;;;;;;;6.93;2.42;;;;;;;;;;5072453;28;20221;-82
2023/03/27 02:28:12;;;;;;;3.72;1.88;;;;;;;;;;5073128;28;20229;-84
2023/03/27 02:30:47;;;;;;;7.75;2.58;;;;;;;;;;5073004;28;20284;-82
2023/03/27 02:33:22;;;;;;;3.53;2.28;;;;;;;;;;5073079;28;20226;-84
2023/03/27 02:35:56;;;;;;;2.53;1.70;;;;;;;;;;5072049;28;20203;-84
2023/03/27 02:38:32;;;;;;;6.15;2.33;;;;;;;;;;5072395;28;20772;-83
2023/03/27 02:41:08;;;;;;;5.18;1.95;;;;;;;;;;5072971;28;20276;-83
2023/03/27 02:43:41;;;;;;;11.07;2.65;;;;;;;;;;5072466;28;20205;-83
2023/03/27 02:46:15;;;;;;;4.60;1.23;;;;;;;;;;5073106;28;20191;-83
2023/03/27 02:48:47;;;;;;;4.32;1.80;;;;;;;;;;5072123;28;20708;-84
2023/03/27 02:51:18;;;;;;;4.57;2.28;;;;;;;;;;5072430;28;20279;-84
2023/03/27 02:53:49;;;;;;;5.10;1.90;;;;;;;;;;5073043;28;20193;-83
2023/03/27 02:56:18;;;;;;;4.43;1.40;;;;;;;;;;5073198;28;20521;-82
2023/03/27 02:58:49;;;;;;;5.70;1.73;;;;;;;;;;5072184;28;20224;-84
2023/03/27 03:01:20;;;;;;;5.53;1.85;;;;;;;;;;5072954;28;20541;-83
2023/03/27 03:03:54;;;;;;;2.20;1.35;;;;;;;;;;5065426;28;20217;-84
2023/03/27 03:06:21;;;;;;;6.78;2.38;;;;;;;;;;5072385;28;20284;-82
2023/03/27 03:08:49;;;;;;;3.70;1.50;;;;;;;;;;5071654;28;20316;-82
2023/03/27 03:11:18;;;;;;;2.75;1.33;;;;;;;;;;5072610;28;20181;-83
2023/03/27 03:13:46;;;;;;;3.85;2.22;;;;;;;;;;5072580;28;20193;-83
2023/03/27 03:16:14;;;;;;;4.47;2.00;;;;;;;;;;5072471;28;20288;-83
2023/03/27 03:18:41;;;;;;;4.93;2.58;;;;;;;;;;5072357;28;20217;-83
2023/03/27 03:21:09;;;;;;;5.38;2.60;;;;;;;;;;5072215;28;20232;-82
2023/03/27 03:23:37;;;;;;;3.15;2.28;;;;;;;;;;5072792;28;20241;-84
2023/03/27 03:26:06;;;;;;;4.82;1.30;;;;;;;;;;5072477;28;20205;-83
2023/03/27 03:28:35;;;;;;;4.85;1.90;;;;;;;;;;5052433;28;20691;-83
2023/03/27 03:31:03;;;;;;;3.72;1.73;;;;;;;;;;5052367;28;20265;-84
2023/03/27 03:33:31;;;;;;;3.38;1.58;;;;;;;;;;5061401;28;20235;-85
2023/03/27 03:35:59;;;;;;;5.82;1.75;;;;;;;;;;5072316;28;20197;-84
2023/03/27 03:38:28;;;;;;;5.47;2.13;;;;;;;;;;5074140;28;20260;-85
2023/03/27 03:40:57;;;;;;;2.60;1.30;;;;;;;;;;5075626;28;20201;-82
2023/03/27 03:43:26;;;;;;;2.75;1.48;;;;;;;;;;5076067;28;20288;-84
2023/03/27 03:45:55;;;;;;;11.95;1.75;;;;;;;;;;5075978;28;20313;-82
2023/03/27 03:48:23;;;;;;;6.40;1.63;;;;;;;;;;5076058;28;20224;-83
2023/03/27 03:50:51;;;;;;;2.05;1.40;;;;;;;;;;5075685;28;20292;-81
2023/03/27 03:53:21;;;;;;;6.00;1.35;;;;;;;;;;5075217;28;20292;-81
2023/03/27 03:55:52;;;;;;;1.90;1.30;;;;;;;;;;5074876;28;20205;-81
2023/03/27 03:58:19;;;;;;;3.97;1.70;;;;;;;;;;5075034;28;20224;-81
2023/03/27 04:00:47;;;;;;;2.65;1.20;;;;;;;;;;5074519;28;20197;-81
2023/03/27 04:03:16;;;;;;;7.60;2.05;;;;;;;;;;5074351;28;20228;-81
2023/03/27 04:05:44;;;;;;;5.63;1.65;;;;;;;;;;5062040;28;20305;-82
2023/03/27 04:08:12;;;;;;;5.00;1.52;;;;;;;;;;5071572;28;20617;-80
2023/03/27 04:10:41;;;;;;;6.78;1.98;;;;;;;;;;5074657;28;20291;-81
2023/03/27 04:13:08;;;;;;;2.45;1.50;;;;;;;;;;5074821;28;20658;-81
2023/03/27 04:15:36;;;;;;;5.05;1.98;;;;;;;;;;5074306;28;20670;-81
2023/03/27 04:18:04;;;;;;;6.55;1.40;;;;;;;;;;5074609;28;20221;-81
2023/03/27 04:20:33;;;;;;;2.67;1.88;;;;;;;;;;5074407;28;20532;-82
2023/03/27 04:23:02;;;;;;;2.97;1.45;;;;;;;;;;5074417;28;20669;-82
2023/03/27 04:25:30;;;;;;;2.92;2.50;;;;;;;;;;5074431;28;20311;-82
2023/03/27 04:28:01;;;;;;;3.40;1.33;;;;;;;;;;5074577;28;20310;-81
2023/03/27 04:30:29;;;;;;;3.97;1.33;;;;;;;;;;5074430;28;20267;-81
2023/03/27 04:32:58;;;;;;;4.70;2.00;;;;;;;;;;5074520;28;20215;-82
2023/03/27 04:35:26;;;;;;;4.65;2.33;;;;;;;;;;5074206;28;20201;-81
2023/03/27 04:37:55;;;;;;;3.20;1.50;;;;;;;;;;5074005;28;20228;-82
2023/03/27 04:40:24;;;;;;;5.85;2.10;;;;;;;;;;5073177;28;20209;-82
2023/03/27 04:42:52;;;;;;;7.35;1.65;;;;;;;;;;5074483;28;20200;-82
2023/03/27 04:45:21;;;;;;;4.22;1.90;;;;;;;;;;5074165;28;20225;-82
2023/03/27 04:47:49;;;;;;;2.78;1.70;;;;;;;;;;5073685;28;20224;-81
2023/03/27 04:50:17;;;;;;;7.85;2.05;;;;;;;;;;5072666;28;20292;-81
2023/03/27 04:52:45;;;;;;;2.85;1.75;;;;;;;;;;5074208;28;20704;-81
2023/03/27 04:55:14;;;;;;;5.72;1.60;;;;;;;;;;5073697;28;20211;-82
2023/03/27 04:57:46;;;;;;;6.38;2.25;;;;;;;;;;5073775;28;20309;-82
2023/03/27 05:00:17;;;;;;;5.32;2.67;;;;;;;;;;5073855;28;20196;-81
2023/03/27 05:02:46;;;;;;;3.45;1.95;;;;;;;;;;5073935;28;20653;-81
2023/03/27 05:05:15;;;;;;;8.73;2.83;;;;;;;;;;5073379;28;20703;-82
2023/03/27 05:07:45;;;;;;;3.22;1.80;;;;;;;;;;5072952;28;20224;-81
2023/03/27 05:10:16;;;;;;;4.97;2.78;;;;;;;;;;5073554;28;20235;-81
2023/03/27 05:12:44;;;;;;;3.78;1.83;;;;;;;;;;5073826;28;20280;-81
2023/03/27 05:15:12;;;;;;;8.32;2.33;;;;;;;;;;5073347;28;20199;-83
2023/03/27 05:17:41;;;;;;;4.78;1.75;;;;;;;;;;5073900;28;20565;-83
2023/03/27 05:20:10;;;;;;;5.43;1.60;;;;;;;;;;5073629;28;20205;-82
2023/03/27 05:22:38;;;;;;;4.80;1.92;;;;;;;;;;5073976;28;20275;-81
2023/03/27 05:25:07;;;;;;;4.78;1.80;;;;;;;;;;5072958;28;20703;-82
2023/03/27 05:27:36;;;;;;;5.68;2.25;;;;;;;;;;5063218;28;20217;-82
2023/03/27 05:30:05;;;;;;;6.20;1.70;;;;;;;;;;5072673;28;20254;-83
2023/03/27 05:32:34;;;;;;;2.78;2.03;;;;;;;;;;5065281;28;20292;-81
2023/03/27 05:35:04;;;;;;;4.65;2.00;;;;;;;;;;5055512;28;20198;-82
2023/03/27 05:37:32;;;;;;;6.55;2.30;;;;;;;;;;5065792;28;20216;-82
2023/03/27 05:40:00;;;;;;;3.67;2.17;;;;;;;;;;5072105;28;20216;-85
2023/03/27 05:42:27;;;;;;;4.82;1.80;;;;;;;;;;5073376;28;20236;-83
2023/03/27 05:44:56;;;;;;;4.80;2.45;;;;;;;;;;5075115;28;20265;-85
2023/03/27 05:47:23;;;;;;;2.83;1.98;;;;;;;;;;5074650;28;20244;-84
2023/03/27 05:49:51;;;;;;;3.78;2.13;;;;;;;;;;5059880;28;20229;-85
2023/03/27 05:52:18;;;;;;;4.60;2.33;;;;;;;;;;5060109;28;20236;-83
2023/03/27 05:54:46;;;;;;;7.93;2.88;;;;;;;;;;5066544;28;20208;-82
2023/03/27 05:57:13;;;;;;;6.20;2.10;;;;;;;;;;5071844;28;20219;-84
2023/03/27 05:59:41;;;;;;;2.75;2.15;;;;;;;;;;5071963;28;20203;-84
2023/03/27 06:02:10;;;;;;;3.25;2.35;;;;;;;;;;5073254;28;20205;-82
2023/03/27 06:04:39;;;;;;;7.47;2.80;;;;;;;;;;5072951;28;20212;-85
2023/03/27 06:07:06;;;;;;;5.30;2.13;;;;;;;;;;5070569;28;20225;-85
2023/03/27 06:09:35;;;;;;;6.85;2.03;;;;;;;;;;5074530;28;20615;-84
2023/03/27 06:12:02;;;;;;;3.60;2.22;;;;;;;;;;5077680;28;20731;-85
2023/03/27 06:14:30;;;;;;;4.80;1.88;;;;;;;;;;5072256;28;20638;-84
2023/03/27 06:16:57;;;;;;;2.80;2.28;;;;;;;;;;5066848;28;20251;-85
2023/03/27 06:19:26;;;;;;;7.20;2.10;;;;;;;;;;5074400;28;20232;-83
2023/03/27 06:21:53;;;;;;;5.35;2.28;;;;;;;;;;5073335;28;20240;-84
2023/03/27 06:24:21;;;;;;;3.53;3.00;;;;;;;;;;5064322;28;20243;-82
2023/03/27 06:26:49;;;;;;;4.38;2.30;;;;;;;;;;5073565;28;20228;-83
2023/03/27 06:29:17;;;;;;;4.78;2.53;;;;;;;;;;5065769;28;20197;-84
2023/03/27 06:31:44;;;;;;;4.63;2.33;;;;;;;;;;5066495;28;20205;-85
2023/03/27 06:34:13;;;;;;;5.18;2.03;;;;;;;;;;5072401;28;20641;-84
2023/03/27 06:36:42;;;;;;;4.30;1.80;;;;;;;;;;5070331;28;20696;-83
2023/03/27 06:39:10;;;;;;;6.25;1.80;;;;;;;;;;5072904;28;20211;-84
2023/03/27 06:41:37;;;;;;;8.02;2.15;;;;;;;;;;5073422;28;20236;-84
2023/03/27 06:44:05;;;;;;;2.85;1.92;;;;;;;;;;5073652;28;20610;-86
2023/03/27 06:46:33;;;;;;;5.30;3.10;;;;;;;;;;5072592;28;20252;-86
2023/03/27 06:49:00;;;;;;;4.97;2.75;;;;;;;;;;5073144;28;20236;-87
2023/03/27 06:51:28;;;;;;;4.90;2.22;;;;;;;;;;5071388;28;20284;-85
2023/03/27 06:53:58;;;;;;;5.00;2.75;;;;;;;;;;5072224;28;20240;-85
2023/03/27 06:56:25;;;;;;;4.72;3.25;;;;;;;;;;5072052;28;20200;-86
2023/03/27 06:58:53;;;;;;;7.32;4.70;;;;;;;;;;5070212;28;20245;-85
2023/03/27 07:01:20;;;;;;;9.43;7.05;;;;;;;;;;5071355;28;20705;-85
2023/03/27 07:03:48;;;;;;;11.18;5.03;;;;;;;;;;5072230;28;20924;-85
2023/03/27 07:06:18;;;;;;;4.18;2.72;;;;;;;;;;5071805;28;20224;-85
2023/03/27 07:08:45;;;;;;;4.68;2.13;;;;;;;;;;5072535;28;20229;-85
2023/03/27 07:11:14;;;;;;;6.28;2.10;;;;;;;;;;5071634;28;20292;-85
2023/03/27 07:13:42;;;;;;;8.55;3.03;;;;;;;;;;5068720;28;20232;-87
2023/03/27 07:16:10;;;;;;;6.35;2.80;;;;;;;;;;5072903;28;20208;-86
2023/03/27 07:18:38;;;;;;;4.10;2.25;;;;;;;;;;5076085;28;20224;-85
2023/03/27 07:21:07;;;;;;;5.18;2.20;;;;;;;;;;5071427;28;20634;-86
2023/03/27 07:23:34;;;;;;;3.25;2.08;;;;;;;;;;5068646;28;20191;-86
2023/03/27 07:26:02;;;;;;;9.45;3.83;;;;;;;;;;5076553;28;20291;-85
2023/03/27 07:28:31;;;;;;;3.80;3.15;;;;;;;;;;5076209;28;20225;-85
2023/03/27 07:30:59;;;;;;;15.45;3.47;;;;;;;;;;5076308;28;20201;-85
2023/03/27 07:33:26;;;;;;;9.18;2.70;;;;;;;;;;5076285;28;20295;-85
2023/03/27 07:35:54;;;;;;;7.70;2.42;;;;;;;;;;5075202;28;20228;-85
2023/03/27 07:38:21;;;;;;;10.35;2.33;;;;;;;;;;5075697;28;20216;-85
2023/03/27 07:40:49;;;;;;;9.30;2.47;;;;;;;;;;5075788;28;20236;-85
2023/03/27 07:43:16;;;;;;;2.08;1.60;;;;;;;;;;5075650;28;20244;-85
2023/03/27 07:45:45;;;;;;;2.85;2.47;;;;;;;;;;5076017;28;20258;-85
2023/03/27 07:48:14;;;;;;;5.18;2.88;;;;;;;;;;5075609;28;20229;-86
2023/03/27 07:50:42;;;;;;;4.88;3.10;;;;;;;;;;5075387;28;20208;-87
2023/03/27 07:53:10;;;;;;;5.20;2.20;;;;;;;;;;5075927;28;20579;-86
2023/03/27 07:55:39;;;;;;;7.95;3.45;;;;;;;;;;5075975;28;20742;-86
2023/03/27 07:58:06;;;;;;;5.18;2.60;;;;;;;;;;5075742;28;20562;-85
2023/03/27 08:00:35;;;;;;;4.43;2.85;;;;;;;;;;5076145;28;20205;-86
2023/03/27 08:03:08;;;;;;;5.18;2.15;;;;;;;;;;5076126;28;20703;-86
2023/03/27 08:05:36;;;;;;;4.78;2.42;;;;;;;;;;5074811;28;20300;-87
2023/03/27 08:08:03;;;;;;;10.73;3.30;;;;;;;;;;5074894;28;20316;-85
2023/03/27 08:10:31;;;;;;;5.38;3.30;;;;;;;;;;5076248;28;20199;-86
2023/03/27 08:12:59;;;;;;;5.72;2.47;;;;;;;;;;5074694;28;20270;-87
2023/03/27 08:15:27;;;;;;;3.38;3.08;;;;;;;;;;5076407;28;20232;-86
2023/03/27 08:17:55;;;;;;;5.43;3.40;;;;;;;;;;5076802;28;20760;-86
2023/03/27 08:20:24;;;;;;;6.28;2.45;;;;;;;;;;5075709;28;20624;-87
2023/03/27 08:22:52;;;;;;;3.95;2.45;;;;;;;;;;5075937;28;20193;-85
2023/03/27 08:25:21;;;;;;;4.30;2.03;;;;;;;;;;5074867;28;20201;-85
2023/03/27 08:27:48;;;;;;;3.50;1.90;;;;;;;;;;5077299;28;20232;-86
2023/03/27 08:30:17;;;;;;;8.10;3.15;;;;;;;;;;5075351;28;20669;-85
2023/03/27 08:32:45;;;;;;;8.30;2.63;;;;;;;;;;5075797;28;20208;-86
2023/03/27 08:35:13;;;;;;;8.18;2.40;;;;;;;;;;5074643;28;20296;-86
2023/03/27 08:37:42;;;;;;;4.72;2.55;;;;;;;;;;5074758;28;20212;-87
2023/03/27 08:40:19;;;;;;;5.70;2.47;;;;;;;;;;5074142;28;20200;-85
2023/03/27 08:42:48;;;;;;;6.43;2.40;;;;;;;;;;5075041;28;20212;-87
2023/03/27 08:45:23;;;;;;;4.43;2.00;;;;;;;;;;5074454;28;20631;-87
2023/03/27 08:47:56;;;;;;;6.28;2.05;;;;;;;;;;5074255;28;20315;-86
2023/03/27 08:50:34;;;;;;;5.45;1.90;;;;;;;;;;5074371;28;20552;-85
2023/03/27 08:53:04;;;;;;;5.45;2.28;;;;;;;;;;5075123;28;20272;-88
2023/03/27 08:55:40;;;;;;;4.28;2.25;;;;;;;;;;5074786;28;20299;-88
2023/03/27 08:58:17;;;;;;;5.18;2.38;;;;;;;;;;5075266;28;20274;-85
2023/03/27 09:00:47;;;;;;;3.00;1.65;;;;;;;;;;5075811;28;20181;-86
2023/03/27 09:03:20;;;;;;;4.97;2.70;;;;;;;;;;5075413;28;20654;-85
2023/03/27 09:05:53;;;;;;;6.60;2.00;;;;;;;;;;5074548;28;20201;-85
2023/03/27 09:08:36;;;;;;;6.45;1.95;;;;;;;;;;5076382;28;20673;-85
2023/03/27 09:11:09;;;;;;;5.30;1.77;;;;;;;;;;5077634;28;20638;-85
2023/03/27 09:13:43;;;;;;;1.30;1.20;;;;;;;;;;5074682;28;20713;-86
2023/03/27 09:16:18;;;;;;;2.30;1.60;;;;;;;;;;5055796;28;20217;-85
2023/03/27 09:18:50;;;;;;;3.28;2.72;;;;;;;;;;5054842;28;20300;-86
2023/03/27 09:21:23;;;;;;;5.07;2.40;;;;;;;;;;5056329;28;20273;-85
2023/03/27 09:23:54;;;;;;;3.92;2.03;;;;;;;;;;5055654;28;20209;-86
2023/03/27 09:26:26;;;;;;;5.35;2.17;;;;;;;;;;5055699;28;20190;-86
2023/03/27 09:28:59;;;;;;;2.42;1.73;;;;;;;;;;5055442;28;20293;-86
2023/03/27 09:31:28;;;;;;;5.13;1.90;;;;;;;;;;5063890;28;20240;-87
2023/03/27 09:33:59;;;;;;;3.67;2.00;;;;;;;;;;5075044;28;20284;-86
2023/03/27 09:36:27;;;;;;;7.03;4.03;;;;;;;;;;5074082;28;20239;-83
2023/03/27 09:39:04;;;;;;;4.90;2.80;;;;;;;;;;5073373;28;20311;-86
2023/03/27 09:41:34;;;;;;;5.03;3.45;;;;;;;;;;5074954;28;20590;-85
2023/03/27 09:44:05;;;;;;;10.57;7.00;;;;;;;;;;5074213;28;20197;-84
2023/03/27 09:46:34;;;;;;;7.55;2.78;;;;;;;;;;5074771;28;20189;-86
2023/03/27 09:49:04;;;;;;;3.83;2.00;;;;;;;;;;5074607;28;20307;-85
2023/03/27 09:51:46;;;;;;;6.18;3.63;;;;;;;;;;5075099;28;20296;-86
2023/03/27 09:54:17;;;;;;;4.00;2.80;;;;;;;;;;5088233;22;20319;-84
2023/03/27 09:56:48;;;;;;;3.72;2.53;;;;;;;;;;5073853;28;20203;-86
2023/03/27 09:59:27;;;;;;;8.60;2.97;;;;;;;;;;5072839;28;20258;-85
2023/03/27 10:01:57;;;;;;;7.22;3.10;;;;;;;;;;5072189;28;20213;-85
2023/03/27 10:04:28;;;;;;;3.00;2.08;;;;;;;;;;5098176;22;20320;-83
2023/03/27 10:07:04;;;;;;;7.32;3.17;;;;;;;;;;5087062;28;20578;-84
2023/03/27 10:09:35;;;;;;;4.93;2.53;;;;;;;;;;5083855;28;20243;-83
2023/03/27 10:12:10;;;;;;;6.78;2.33;;;;;;;;;;5074403;28;20665;-85
2023/03/27 10:14:41;;;;;;;3.78;2.33;;;;;;;;;;5073920;28;20220;-83
2023/03/27 10:17:15;;;;;;;1.85;1.52;;;;;;;;;;5072896;28;20614;-82
2023/03/27 10:19:43;;;;;;;4.05;2.30;;;;;;;;;;5072412;28;20197;-82
2023/03/27 10:22:27;;;;;;;5.50;2.53;;;;;;;;;;5078126;28;20674;-81
2023/03/27 10:25:01;;;;;;;4.43;2.10;;;;;;;;;;5092668;28;20226;-81
2023/03/27 10:27:32;;;;;;;11.68;2.92;;;;;;;;;;5091398;28;20208;-82
2023/03/27 10:29:59;;;;;;;3.10;1.65;;;;;;;;;;5085454;28;20216;-83
2023/03/27 10:32:45;;;;;;;1.83;1.50;;;;;;;;;;5093220;28;20205;-83
2023/03/27 10:35:25;;;;;;;1.77;1.60;;;;;;;;;;5092615;28;20224;-82
2023/03/27 10:37:52;;;;;;;2.33;1.80;;;;;;;;;;5087898;28;20294;-83
2023/03/27 10:40:25;;;;;;;4.97;1.40;;;;;;;;;;5091753;28;20238;-83
2023/03/27 10:42:56;;;;;;;5.93;2.00;;;;;;;;;;5093719;28;20196;-85
2023/03/27 10:45:24;;;;;;;2.47;1.35;;;;;;;;;;5092938;28;20231;-83
2023/03/27 10:47:54;;;;;;;1.80;1.70;;;;;;;;;;5096441;28;20193;-84
2023/03/27 10:50:27;;;;;;;3.15;2.08;;;;;;;;;;5098910;28;20295;-83
2023/03/27 10:53:02;;;;;;;2.70;1.55;;;;;;;;;;5102254;28;20227;-83
2023/03/27 10:55:43;;;;;;;2.42;1.65;;;;;;;;;;5099242;28;20226;-83
2023/03/27 10:58:28;;;;;;;2.20;2.03;;;;;;;;;;5077877;28;20561;-84
2023/03/27 11:01:09;;;;;;;2.72;1.90;;;;;;;;;;5077764;28;20282;-84
2023/03/27 11:03:49;;;;;;;3.42;1.55;;;;;;;;;;5079011;28;20209;-83
2023/03/27 11:06:21;;;;;;;2.15;1.42;;;;;;;;;;5087435;28;20250;-83
2023/03/27 11:09:04;;;;;;;3.50;1.75;;;;;;;;;;5099403;28;20223;-84
2023/03/27 11:11:38;;;;;;;1.83;1.30;;;;;;;;;;5099674;28;20211;-83
2023/03/27 11:14:17;;;;;;;2.08;1.27;;;;;;;;;;5098803;28;20223;-82
2023/03/27 11:16:50;;;;;;;3.08;1.65;;;;;;;;;;5099201;28;20238;-83
2023/03/27 11:19:33;;;;;;;1.20;1.10;;;;;;;;;;5097503;28;20203;-82
2023/03/27 11:22:04;;;;;;;3.83;1.40;;;;;;;;;;5097739;28;20307;-82
2023/03/27 11:24:40;;;;;;;3.50;1.95;;;;;;;;;;5097297;28;20315;-82
2023/03/27 11:27:19;;;;;;;2.50;1.50;;;;;;;;;;5086953;28;20285;-82
2023/03/27 11:29:57;;;;;;;1.70;1.42;;;;;;;;;;5090956;28;20598;-82
2023/03/27 11:32:40;;;;;;;3.30;1.35;;;;;;;;;;5097221;28;20196;-82
2023/03/27 11:35:16;;;;;;;4.97;1.88;;;;;;;;;;5097776;28;20248;-82
2023/03/27 11:37:50;;;;;;;4.47;2.25;;;;;;;;;;5076647;28;20201;-82
2023/03/27 11:40:22;;;;;;;1.92;1.08;;;;;;;;;;5076948;28;20283;-82
2023/03/27 11:43:11;;;;;;;;;;;;;;;;;;;;;
2023/03/27 11:45:44;;;;;;;1.23;1.13;;;;;;;;;;5096954;28;20414;-83
2023/03/27 11:48:43;;;;;;;3.08;1.45;;;;;;;;;;5114841;28;20251;-82
2023/03/27 11:51:20;;;;;;;4.20;1.30;;;;;;;;;;5114723;28;20287;-83
2023/03/27 11:54:10;;;;;;;1.50;1.40;;;;;;;;;;5112931;28;20200;-84
2023/03/27 11:56:51;;;;;;;3.78;1.08;;;;;;;;;;5109591;28;20208;-83
2023/03/27 11:59:52;;;;;;;1.30;1.15;;;;;;;;;;5108323;28;20271;-84
2023/03/27 12:02:48;;;;;;;1.35;1.25;;;;;;;;;;5102678;28;20565;-85
2023/03/27 12:05:21;;;;;;;2.05;0.82;;;;;;;;;;5100709;28;20607;-84
2023/03/27 12:07:57;;;;;;;3.13;1.40;;;;;;;;;;5080415;28;20235;-84
2023/03/27 12:10:32;;;;;;;1.55;1.15;;;;;;;;;;5078130;28;20230;-84
2023/03/27 12:13:47;;;;;;;1.52;1.10;;;;;;;;;;5078206;28;20291;-84
2023/03/27 12:17:10;;;;;;;1.15;1.10;;;;;;;;;;5078331;28;20201;-83
2023/03/27 12:19:59;;;;;;;0.93;0.93;;;;;;;;;;5056970;28;20684;-84
2023/03/27 12:22:35;;;;;;;1.80;1.20;;;;;;;;;;5097629;28;20286;-84
2023/03/27 12:25:26;;;;;;;1.33;0.90;;;;;;;;;;5097286;28;20224;-83
2023/03/27 12:28:07;;;;;;;3.38;1.17;;;;;;;;;;5096307;28;20676;-83
2023/03/27 12:30:48;;;;;;;3.28;1.02;;;;;;;;;;5090091;28;20220;-83
2023/03/27 12:33:41;;;;;;;1.13;1.00;;;;;;;;;;5085273;28;20257;-84
2023/03/27 12:36:13;;;;;;;1.35;0.90;;;;;;;;;;5084139;28;20696;-82
2023/03/27 12:38:42;;;;;;;1.52;1.15;;;;;;;;;;5093698;28;20200;-83
2023/03/27 12:41:22;;;;;;;2.28;1.15;;;;;;;;;;5088147;28;20200;-83
2023/03/27 12:43:56;;;;;;;1.88;1.00;;;;;;;;;;5079178;28;20197;-83
2023/03/27 12:46:36;;;;;;;2.28;1.30;;;;;;;;;;5087194;28;20248;-82
2023/03/27 12:49:56;;;;;;;1.02;0.98;;;;;;;;;;5082843;28;20538;-82
2023/03/27 12:52:25;;;;;;;2.63;0.90;;;;;;;;;;5068210;28;20197;-82
2023/03/27 12:55:33;;;;;;;1.27;0.98;;;;;;;;;;5088283;28;20216;-84
2023/03/27 12:58:03;;;;;;;3.15;1.00;;;;;;;;;;5088461;28;20834;-82
2023/03/27 13:00:31;;;;;;;1.65;0.88;;;;;;;;;;5091600;28;20319;-82
2023/03/27 13:03:29;;;;;;;2.00;0.90;;;;;;;;;;5093051;28;20712;-82
2023/03/27 13:06:21;;;;;;;6.45;1.42;;;;;;;;;;5087587;28;20234;-82
2023/03/27 13:09:14;;;;;;;1.30;1.20;;;;;;;;;;5084608;28;20215;-82
2023/03/27 13:11:57;;;;;;;2.08;1.88;;;;;;;;;;5078139;28;20185;-82
2023/03/27 13:15:02;;;;;;;1.38;1.13;;;;;;;;;;5081742;28;20232;-81
2023/03/27 13:18:05;;;;;;;2.80;1.90;;;;;;;;;;5070821;28;20204;-82
2023/03/27 13:20:41;;;;;;;2.38;2.15;;;;;;;;;;5073529;28;20200;-83
2023/03/27 13:23:27;;;;;;;1.80;1.63;;;;;;;;;;5092620;28;20196;-82
2023/03/27 13:26:20;;;;;;;1.85;1.75;;;;;;;;;;5085485;28;20633;-83
2023/03/27 13:28:49;;;;;;;1.77;1.67;;;;;;;;;;5084309;28;20242;-84
2023/03/27 13:32:00;;;;;;;3.42;2.15;;;;;;;;;;5086247;28;20239;-82
2023/03/27 13:34:39;;;;;;;3.15;2.65;;;;;;;;;;5082603;28;20247;-82
2023/03/27 13:37:57;;;;;;;3.10;1.73;;;;;;;;;;5081518;28;20569;-82
2023/03/27 13:40:30;;;;;;;1.65;1.55;;;;;;;;;;5002011;28;20195;-82
2023/03/27 13:43:14;;;;;;;7.03;1.65;;;;;;;;;;5002427;28;20200;-81
2023/03/27 13:45:46;;;;;;;1.58;1.30;;;;;;;;;;5058295;28;20755;-81
2023/03/27 13:49:01;;;;;;;2.17;1.60;;;;;;;;;;5076024;28;20552;-82
2023/03/27 13:51:51;;;;;;;1.75;1.65;;;;;;;;;;5091235;28;20227;-81
2023/03/27 13:55:13;;;;;;;2.30;1.77;;;;;;;;;;5085165;28;20249;-81
2023/03/27 13:57:59;;;;;;;1.70;1.20;;;;;;;;;;5067465;28;20698;-80
2023/03/27 14:00:46;;;;;;;1.73;1.10;;;;;;;;;;5078056;28;20671;-82
2023/03/27 14:03:43;;;;;;;1.17;1.08;;;;;;;;;;5083773;28;20242;-82
2023/03/27 14:07:14;;;;;;;2.42;1.80;;;;;;;;;;5075593;28;20255;-80
2023/03/27 14:10:05;;;;;;;2.70;1.30;;;;;;;;;;5023098;28;20198;-81
2023/03/27 14:12:47;;;;;;;1.73;1.20;;;;;;;;;;5034639;28;20202;-82
2023/03/27 14:15:30;;;;;;;1.50;1.40;;;;;;;;;;5074943;28;20591;-82
2023/03/27 14:18:20;;;;;;;3.45;2.63;;;;;;;;;;5087812;28;20283;-82
2023/03/27 14:20:50;;;;;;;4.80;3.08;;;;;;;;;;5083843;28;20197;-83
2023/03/27 14:23:22;;;;;;;3.30;2.92;;;;;;;;;;5096338;28;20206;-81
2023/03/27 14:25:59;;;;;;;2.33;1.83;;;;;;;;;;5096183;28;20216;-82
2023/03/27 14:28:33;;;;;;;1.40;1.25;;;;;;;;;;5088023;28;20253;-83
2023/03/27 14:31:04;;;;;;;1.05;1.02;;;;;;;;;;5088929;28;20216;-82
2023/03/27 14:33:33;;;;;;;1.20;1.10;;;;;;;;;;5084126;28;20276;-83
2023/03/27 14:36:04;;;;;;;1.70;1.20;;;;;;;;;;5092229;28;20616;-82
2023/03/27 14:38:34;;;;;;;1.17;1.08;;;;;;;;;;5082037;28;20219;-83
2023/03/27 14:41:03;;;;;;;3.25;1.38;;;;;;;;;;5092276;28;20204;-82
2023/03/27 14:43:32;;;;;;;1.10;0.95;;;;;;;;;;5089714;28;20209;-83
2023/03/27 14:46:02;;;;;;;1.20;0.82;;;;;;;;;;5084563;28;20339;-82
2023/03/27 14:48:32;;;;;;;3.03;1.27;;;;;;;;;;5087089;28;20200;-82
2023/03/27 14:51:05;;;;;;;1.15;0.82;;;;;;;;;;5077872;28;20719;-83
2023/03/27 14:53:43;;;;;;;1.17;1.08;;;;;;;;;;5076558;28;20203;-83
2023/03/27 14:56:22;;;;;;;3.28;1.00;;;;;;;;;;5088589;28;20208;-83
2023/03/27 14:58:52;;;;;;;3.17;1.17;;;;;;;;;;5087626;28;20197;-83
2023/03/27 15:01:19;;;;;;;3.45;1.13;;;;;;;;;;5092621;28;20200;-83
2023/03/27 15:03:48;;;;;;;1.77;1.10;;;;;;;;;;5106448;28;20652;-83
2023/03/27 15:06:19;;;;;;;1.05;1.05;;;;;;;;;;5097025;28;20220;-84
2023/03/27 15:08:51;;;;;;;1.60;1.20;;;;;;;;;;5091044;28;20226;-83
2023/03/27 15:11:22;;;;;;;0.90;0.90;;;;;;;;;;5098204;28;20310;-81
2023/03/27 15:13:53;;;;;;;1.20;1.20;;;;;;;;;;5094062;28;20215;-82
2023/03/27 15:16:24;;;;;;;1.27;0.95;;;;;;;;;;5093488;28;20286;-82
2023/03/27 15:19:03;;;;;;;1.80;0.90;;;;;;;;;;5084549;28;20226;-81
2023/03/27 15:21:43;;;;;;;2.47;1.08;;;;;;;;;;5082700;28;20247;-83
2023/03/27 15:24:16;;;;;;;1.20;1.00;;;;;;;;;;5089102;28;20227;-83